Skip Navigation LinksHome page > Weather > Current weather Skip Navigation Links

Current Weather

Ndjamena, Chad

For information only: do not use for flight planning or navigation.
Latest weather
Observation time Wednesday, July 23, 2014 2:00 PM WAT
Local time Wednesday, July 23, 2014 2:56 PM WAT
Flight conditions Visual Meteorological Conditions
Winds
Wind direction West-Southwest (240°)
Winds variable from 210° to 270°
Wind speed 12 mph
Visibility 6.2 mi.
Sky condition
Ceiling unlimited
Cloud layer scattered clouds 4,000 ft.
Temperature 93°F
Dewpoint 82°F
Altimeter 29.85 in.Hg
Derived measurements
Relative humidity 71%
Heat index 117°F
Density altitude 2735 ft.
Remarks
No significant changes expected in the next two hours.
METAR FTTJ 231300Z 24010KT 210V270 9999 SCT040 34/28 Q1011 NOSIG

Settings

Location code

InnerDrive.Weather 4.0.5294.0 Release CLR 4.0.30319.34014
Copyright ©2014 Inner Drive Technology. All rights reserved. Portions Copyright ©1986-2014 David Braverman.

Find weather

Site navigation


Skip Navigation Links

Place info

Page info

PayPal - The safer, easier way to pay online!

Return home.

Copyright ©2014 Inner Drive Technology. Purveyors of fine, hand-crafted computer software. Page printed 2014-07-23T13:56:48 UTC.